Time;durP1;ratioP1;P1;durP2;ratioP2;P2;SDS_P1;SDS_P2;PMS_P1;PMS_P2;Temp;Humidity;BMP_temperature;BMP_pressure;BME280_temperature;BME280_humidity;BME280_pressure;Samples;Min_cycle;Max_cycle;Signal;HPM_P1;HPM_P2
2022/09/01 00:00:27;;;;;;;61.30;33.40;;;;;;;17.21;100.00;97463.78;10330913;28;20475;-57
2022/09/01 00:05:26;;;;;;;62.42;32.85;;;;;;;17.29;100.00;97460.00;10327493;28;20089;-57
2022/09/01 00:10:25;;;;;;;71.82;35.63;;;;;;;17.20;100.00;97455.06;10330029;28;20088;-57
2022/09/01 00:15:25;;;;;;;88.57;36.75;;;;;;;17.00;100.00;97439.09;10329904;28;20029;-57
2022/09/01 00:20:24;;;;;;;90.00;38.70;;;;;;;16.98;100.00;97438.28;10330649;28;20057;-57
2022/09/01 00:25:23;;;;;;;87.40;39.10;;;;;;;16.98;100.00;97435.66;10329869;28;20068;-57
2022/09/01 00:30:22;;;;;;;86.53;39.63;;;;;;;17.01;100.00;97433.81;10329473;28;20080;-57
2022/09/01 00:35:21;;;;;;;65.50;34.58;;;;;;;17.05;100.00;97439.81;10329196;28;20077;-57
2022/09/01 00:40:21;;;;;;;67.20;34.25;;;;;;;17.05;100.00;97439.81;10329301;28;20490;-57
2022/09/01 00:45:20;;;;;;;61.67;32.80;;;;;;;16.98;100.00;97451.38;10328761;28;20077;-57
2022/09/01 00:50:20;;;;;;;63.03;33.30;;;;;;;16.99;100.00;97453.13;10328219;28;20069;-57
2022/09/01 00:55:29;;;;;;;63.95;31.83;;;;;;;16.94;100.00;97445.41;10328048;28;20406;-58
2022/09/01 01:00:30;;;;;;;67.35;33.15;;;;;;;17.00;100.00;97452.19;10329172;28;20060;-57
2022/09/01 01:05:39;;;;;;;84.25;34.08;;;;;;;17.06;100.00;97444.16;10327639;28;20071;-57
2022/09/01 01:10:40;;;;;;;61.83;31.33;;;;;;;17.05;100.00;97445.03;10329154;28;20076;-57
2022/09/01 01:15:42;;;;;;;72.45;34.03;;;;;;;17.05;100.00;97440.69;10328701;28;20082;-57
2022/09/01 01:25:59;;;;;;;61.15;31.25;;;;;;;17.18;100.00;97449.00;10328974;28;20511;-57
2022/09/01 01:31:04;;;;;;;74.10;32.67;;;;;;;17.26;100.00;97449.63;10327949;28;20060;-57
2022/09/01 01:36:06;;;;;;;76.78;32.88;;;;;;;17.19;100.00;97449.84;10328942;28;20076;-57
2022/09/01 01:41:05;;;;;;;65.50;31.90;;;;;;;17.01;100.00;97453.94;10327502;28;20061;-57
2022/09/01 01:46:07;;;;;;;55.08;28.70;;;;;;;17.02;100.00;97455.63;10327606;28;20073;-57
2022/09/01 01:51:07;;;;;;;52.40;29.63;;;;;;;17.00;100.00;97452.19;10328038;28;20479;-57
2022/09/01 01:56:07;;;;;;;53.75;28.40;;;;;;;17.00;100.00;97441.72;10327507;28;20057;-57
2022/09/01 02:01:09;;;;;;;42.85;24.40;;;;;;;16.62;100.00;97468.16;10327210;28;20072;-57
2022/09/01 02:06:10;;;;;;;37.28;22.85;;;;;;;16.41;100.00;97463.56;10327872;28;20498;-57
2022/09/01 02:11:11;;;;;;;35.10;23.45;;;;;;;16.29;100.00;97468.25;10326865;28;20069;-57
2022/09/01 02:16:11;;;;;;;38.15;23.60;;;;;;;16.40;100.00;97462.72;10328822;28;20488;-58
2022/09/01 02:21:12;;;;;;;44.75;25.45;;;;;;;16.47;100.00;97464.25;10334714;28;20068;-57
2022/09/01 02:26:12;;;;;;;47.72;25.67;;;;;;;16.59;100.00;97456.94;10334101;28;20076;-57
2022/09/01 02:31:11;;;;;;;49.83;26.05;;;;;;;16.58;100.00;97465.69;10333843;28;20072;-58
2022/09/01 02:36:14;;;;;;;50.15;27.42;;;;;;;16.63;100.00;97453.28;10334261;28;20485;-57
2022/09/01 02:41:14;;;;;;;49.90;27.65;;;;;;;16.57;100.00;97456.97;10334188;28;20060;-57
2022/09/01 02:46:14;;;;;;;53.22;27.05;;;;;;;16.64;100.00;97453.25;10333384;28;20085;-57
2022/09/01 02:51:16;;;;;;;45.10;26.75;;;;;;;16.50;100.00;97453.66;10333910;28;20069;-57
2022/09/01 02:56:17;;;;;;;49.80;26.75;;;;;;;16.43;100.00;97451.28;10333404;28;20067;-57
2022/09/01 03:01:27;;;;;;;52.05;28.27;;;;;;;16.51;100.00;97450.16;10333279;28;20075;-57
2022/09/01 03:06:29;;;;;;;53.63;28.88;;;;;;;16.61;100.00;97449.88;10333230;28;20076;-58
2022/09/01 03:11:31;;;;;;;55.83;28.30;;;;;;;16.62;100.00;97449.81;10332169;28;20507;-57
2022/09/01 03:16:31;;;;;;;57.30;29.98;;;;;;;16.71;100.00;97456.56;10332313;28;20068;-57
2022/09/01 03:21:31;;;;;;;58.60;30.63;;;;;;;16.73;100.00;97452.13;10333145;28;20076;-57
2022/09/01 03:26:30;;;;;;;65.95;29.48;;;;;;;16.73;100.00;97450.38;10331802;28;20069;-57
2022/09/01 03:31:30;;;;;;;59.45;30.88;;;;;;;16.77;100.00;97460.75;10332127;28;20079;-57
2022/09/01 03:36:32;;;;;;;55.88;30.67;;;;;;;16.77;100.00;97464.25;10332476;28;20073;-58
2022/09/01 03:41:31;;;;;;;68.57;31.10;;;;;;;16.81;100.00;97454.53;10332024;28;20065;-57
2022/09/01 03:46:30;;;;;;;61.75;30.90;;;;;;;16.85;100.00;97446.53;10331011;28;20077;-57
2022/09/01 03:51:29;;;;;;;68.68;31.83;;;;;;;16.90;100.00;97442.00;10331764;28;20140;-58
2022/09/01 03:56:28;;;;;;;69.35;34.30;;;;;;;16.97;100.00;97444.44;10331284;28;20522;-58
2022/09/01 04:01:32;;;;;;;65.05;30.30;;;;;;;16.91;100.00;97448.09;10330665;28;20026;-58
2022/09/01 04:06:31;;;;;;;59.20;29.70;;;;;;;16.88;100.00;97454.28;10331275;28;20073;-58
2022/09/01 04:11:31;;;;;;;54.90;27.15;;;;;;;16.87;100.00;97457.84;10330999;28;20045;-58
2022/09/01 04:21:58;;;;;;;47.53;26.35;;;;;;;16.57;100.00;97469.22;10330343;28;20563;-57
2022/09/01 04:27:00;;;;;;;48.30;25.90;;;;;;;16.56;100.00;97467.47;10319305;28;20096;-57
2022/09/01 04:32:04;;;;;;;48.67;25.48;;;;;;;16.65;100.00;97468.09;10329208;28;20068;-58
2022/09/01 04:37:20;;;;;;;38.70;24.13;;;;;;;16.66;100.00;97474.19;10329561;28;20087;-57
2022/09/01 04:42:22;;;;;;;47.95;24.30;;;;;;;16.72;100.00;97466.13;10328964;28;20061;-57
2022/09/01 04:47:28;;;;;;;49.65;25.67;;;;;;;16.73;100.00;97470.47;10326573;28;20080;-57
2022/09/01 04:52:28;;;;;;;45.13;25.08;;;;;;;16.76;100.00;97459.88;10328643;28;20077;-58
2022/09/01 04:57:28;;;;;;;48.20;27.98;;;;;;;16.82;100.00;97459.75;10328848;28;20061;-57
2022/09/01 05:02:27;;;;;;;50.60;27.83;;;;;;;16.97;100.00;97452.31;10328367;28;20075;-57
2022/09/01 05:07:26;;;;;;;51.75;27.67;;;;;;;17.07;100.00;97464.19;10325735;28;20132;-57
2022/09/01 05:12:26;;;;;;;50.08;27.98;;;;;;;17.13;100.00;97462.25;10328459;28;20073;-58
2022/09/01 05:17:27;;;;;;;47.75;26.70;;;;;;;17.25;100.00;97461.00;10329141;28;20080;-57
2022/09/01 05:22:26;;;;;;;48.30;25.70;;;;;;;17.25;100.00;97455.75;10327967;28;20536;-57
2022/09/01 05:27:25;;;;;;;41.67;24.92;;;;;;;17.26;100.00;97462.72;10328624;28;20454;-57
2022/09/01 05:32:26;;;;;;;48.65;29.05;;;;;;;17.32;100.00;97457.25;10328272;28;20076;-57
2022/09/01 05:37:27;;;;;;;44.13;26.10;;;;;;;17.37;100.00;97464.97;10328193;28;20514;-57
2022/09/01 05:42:27;;;;;;;42.22;25.05;;;;;;;17.36;100.00;97465.91;10327431;28;20456;-57
2022/09/01 05:47:27;;;;;;;44.50;23.75;;;;;;;17.42;100.00;97465.69;10327611;28;20073;-58
2022/09/01 05:52:30;;;;;;;44.60;26.00;;;;;;;17.45;100.00;97464.72;10327716;28;20141;-57
2022/09/01 05:57:34;;;;;;;35.25;24.15;;;;;;;17.53;100.00;97462.72;10332704;28;20080;-58
2022/09/01 06:02:34;;;;;;;39.67;25.10;;;;;;;17.72;100.00;97462.94;10332144;28;20482;-57
2022/09/01 06:07:35;;;;;;;40.47;25.70;;;;;;;17.79;100.00;97456.59;10331859;28;20510;-57
2022/09/01 06:12:34;;;;;;;34.60;24.50;;;;;;;17.79;99.65;97458.38;10329111;28;20141;-58
2022/09/01 06:17:33;;;;;;;42.95;24.77;;;;;;;17.64;99.56;97450.09;10330762;28;20030;-58
2022/09/01 06:22:33;;;;;;;38.88;25.10;;;;;;;17.71;100.00;97462.09;10331056;28;20087;-57
2022/09/01 06:27:32;;;;;;;36.10;24.63;;;;;;;17.93;99.80;97451.72;10341399;28;20068;-58
2022/09/01 06:32:34;;;;;;;36.97;23.70;;;;;;;17.95;98.69;97460.41;10329950;28;20120;-57
2022/09/01 06:37:33;;;;;;;37.47;23.45;;;;;;;17.80;98.69;97457.44;10329955;28;20132;-57
2022/09/01 06:42:34;;;;;;;34.15;23.42;;;;;;;17.86;99.00;97467.75;10328227;28;20110;-57
2022/09/01 06:47:32;;;;;;;31.80;24.52;;;;;;;18.14;98.25;97460.59;10330236;28;20073;-57
2022/09/01 06:52:31;;;;;;;32.67;22.92;;;;;;;18.49;96.69;97463.72;10330826;28;20048;-58
2022/09/01 06:57:30;;;;;;;32.05;23.50;;;;;;;18.61;96.17;97459.75;10330875;28;20025;-57
2022/09/01 07:02:32;;;;;;;33.40;22.77;;;;;;;18.78;95.02;97446.00;10329962;28;20021;-57
2022/09/01 07:07:33;;;;;;;30.85;22.20;;;;;;;18.73;93.12;97448.81;10330647;28;20068;-58
2022/09/01 07:12:32;;;;;;;28.10;22.17;;;;;;;18.76;92.60;97453.97;10330999;28;20065;-57
2022/09/01 07:17:31;;;;;;;27.38;20.77;;;;;;;18.55;93.08;97450.34;10330585;28;20075;-57
2022/09/01 07:22:30;;;;;;;32.78;24.30;;;;;;;18.57;94.15;97440.63;10329668;28;20030;-57
2022/09/01 07:27:29;;;;;;;29.02;22.08;;;;;;;18.93;93.73;97434.03;10330014;28;20047;-57
2022/09/01 07:32:29;;;;;;;37.60;25.67;;;;;;;19.26;91.77;97437.06;10331195;28;20030;-57
2022/09/01 07:37:28;;;;;;;32.80;23.15;;;;;;;19.48;90.10;97438.81;10332284;28;20073;-58
2022/09/01 07:42:28;;;;;;;29.13;22.27;;;;;;;19.43;89.15;97439.84;10331863;28;20051;-57
2022/09/01 07:47:28;;;;;;;29.73;21.48;;;;;;;19.12;90.40;97439.41;10327945;28;20805;-57
2022/09/01 07:52:28;;;;;;;29.25;22.80;;;;;;;18.95;91.05;97434.84;10330567;28;20076;-58
2022/09/01 07:57:27;;;;;;;28.67;20.45;;;;;;;18.93;91.52;97449.81;10332200;28;20073;-57
2022/09/01 08:02:26;;;;;;;26.88;22.00;;;;;;;19.28;91.18;97442.28;10331994;28;20041;-57
2022/09/01 08:07:25;;;;;;;29.38;22.10;;;;;;;19.60;90.27;97447.09;10332140;28;20076;-57
2022/09/01 08:12:24;;;;;;;27.83;21.35;;;;;;;19.37;91.33;97445.38;10332596;28;20017;-58
2022/09/01 08:17:23;;;;;;;27.48;21.27;;;;;;;19.18;90.95;97447.03;10331593;28;20056;-57
2022/09/01 08:22:24;;;;;;;33.78;22.02;;;;;;;19.30;91.19;97445.69;10332457;28;20419;-57
2022/09/01 08:27:23;;;;;;;25.30;20.60;;;;;;;19.43;90.90;97439.00;10332807;28;20079;-57
2022/09/01 08:32:22;;;;;;;27.02;20.33;;;;;;;19.66;90.21;97444.19;10332540;28;20030;-58
2022/09/01 08:37:21;;;;;;;25.00;20.90;;;;;;;19.78;89.53;97441.94;10331525;28;20475;-58
2022/09/01 08:42:53;;;;;;;26.23;20.02;;;;;;;20.07;88.36;97428.38;10332042;28;20063;-58
2022/09/01 08:47:56;;;;;;;19.90;17.33;;;;;;;20.31;86.87;97422.94;10331788;28;20068;-58
2022/09/01 08:53:06;;;;;;;21.23;17.08;;;;;;;20.54;85.82;97424.53;10332008;28;20076;-57
2022/09/01 08:58:08;;;;;;;15.80;13.13;;;;;;;20.82;84.23;97415.31;10331429;28;20774;-58
2022/09/01 09:03:26;;;;;;;18.98;14.18;;;;;;;21.13;83.87;97406.78;10331482;28;20088;-57
2022/09/01 09:08:52;;;;;;;21.17;17.23;;;;;;;21.48;83.26;97412.97;10331880;28;20463;-58
2022/09/01 09:13:56;;;;;;;20.27;16.75;;;;;;;21.92;83.15;97407.19;10330646;28;20057;-58
2022/09/01 09:19:21;;;;;;;18.52;14.20;;;;;;;22.08;79.50;97401.13;10330907;28;20069;-58
2022/09/01 09:24:51;;;;;;;17.08;12.13;;;;;;;22.14;77.89;97395.53;10331604;28;20057;-58
2022/09/01 09:29:56;;;;;;;18.05;11.95;;;;;;;22.34;76.42;97381.22;10339794;28;20695;-58
2022/09/01 09:34:57;;;;;;;22.17;14.90;;;;;;;22.63;75.59;97378.78;10339615;28;20087;-58
2022/09/01 09:40:13;;;;;;;15.13;10.93;;;;;;;22.87;74.97;97364.19;10339668;28;20080;-58
2022/09/01 09:45:40;;;;;;;36.72;24.92;;;;;;;23.11;72.65;97359.25;10338418;28;20073;-56
2022/09/01 09:50:42;;;;;;;13.32;9.63;;;;;;;23.22;71.83;97362.16;10338878;28;20084;-56
2022/09/01 09:55:53;;;;;;;14.05;10.02;;;;;;;23.16;72.03;97351.94;10338945;28;20071;-56
2022/09/01 10:01:06;;;;;;;15.02;10.50;;;;;;;23.38;73.02;97342.72;10337816;28;20065;-59
2022/09/01 10:06:09;;;;;;;13.93;10.40;;;;;;;23.53;71.31;97328.59;10338713;28;20065;-57
2022/09/01 10:11:09;;;;;;;14.23;10.57;;;;;;;23.65;71.10;97337.59;10338086;28;20064;-57
2022/09/01 10:16:18;;;;;;;15.60;10.07;;;;;;;23.69;69.81;97335.63;10337737;28;20792;-57
2022/09/01 10:21:25;;;;;;;;;;;;;;;23.88;69.51;97325.59;10335555;28;20479;-57
2022/09/01 10:26:32;;;;;;;14.13;9.52;;;;;;;24.24;68.77;97321.63;10334683;28;19948;-57
2022/09/01 10:31:32;;;;;;;14.80;10.32;;;;;;;24.46;68.39;97319.28;10332574;28;20891;-57
2022/09/01 10:36:35;;;;;;;12.77;9.68;;;;;;;24.58;66.22;97322.13;10330173;28;20069;-57
2022/09/01 10:41:52;;;;;;;12.00;9.02;;;;;;;24.68;64.83;97315.25;10329907;28;20061;-58
2022/09/01 10:46:52;;;;;;;14.68;9.57;;;;;;;24.66;65.55;97307.41;10332036;28;20081;-57
2022/09/01 10:51:53;;;;;;;12.32;9.65;;;;;;;24.69;64.35;97309.84;10334406;28;20077;-58
2022/09/01 10:56:52;;;;;;;16.55;10.50;;;;;;;24.83;64.04;97306.28;10334278;28;20080;-58
2022/09/01 11:01:51;;;;;;;12.88;9.40;;;;;;;25.12;65.10;97303.53;10333454;28;20072;-58
2022/09/01 11:06:51;;;;;;;15.25;9.13;;;;;;;25.61;64.01;97294.91;10333643;28;20044;-59
2022/09/01 11:12:09;;;;;;;10.95;8.85;;;;;;;25.93;61.53;97289.16;10331723;28;20076;-58
2022/09/01 11:17:10;;;;;;;14.03;9.40;;;;;;;25.94;58.90;97282.84;10332888;28;20068;-58
2022/09/01 11:22:12;;;;;;;11.45;8.65;;;;;;;26.26;60.58;97285.06;10332577;28;20311;-58
2022/09/01 11:27:49;;;;;;;19.05;9.77;;;;;;;26.75;57.83;97273.50;10332248;28;20061;-58
2022/09/01 11:32:56;;;;;;;12.98;8.38;;;;;;;27.03;56.08;97274.97;10331819;28;20073;-57
2022/09/01 11:38:00;;;;;;;12.93;8.48;;;;;;;27.42;52.90;97263.06;10331869;28;20068;-57
2022/09/01 11:43:07;;;;;;;9.65;7.40;;;;;;;27.65;51.83;97254.28;10331006;28;20492;-57
2022/09/01 11:48:09;;;;;;;13.13;8.75;;;;;;;27.82;52.29;97256.44;10330935;28;20072;-57
2022/09/01 11:53:13;;;;;;;11.77;7.88;;;;;;;27.89;52.09;97260.31;10330759;28;20060;-57
2022/09/01 11:58:31;;;;;;;10.95;6.95;;;;;;;27.54;50.23;97261.31;10331406;28;20115;-57
2022/09/01 12:03:31;;;;;;;11.15;7.72;;;;;;;27.34;50.57;97246.81;10331123;28;20068;-57
2022/09/01 12:08:35;;;;;;;13.80;8.40;;;;;;;26.91;50.83;97259.88;10330865;28;20503;-57
2022/09/01 12:13:36;;;;;;;13.27;7.82;;;;;;;26.84;52.24;97258.66;10330457;28;20053;-57
2022/09/01 12:18:47;;;;;;;10.48;7.45;;;;;;;26.71;52.43;97240.06;10330372;28;20064;-57
2022/09/01 12:23:46;;;;;;;11.55;7.82;;;;;;;26.83;52.94;97236.50;10330885;28;20068;-57
2022/09/01 12:28:48;;;;;;;15.40;8.00;;;;;;;26.78;52.50;97231.50;10330314;28;20084;-57
2022/09/01 12:33:47;;;;;;;17.73;9.32;;;;;;;26.52;54.67;97237.94;10330428;28;20077;-57
2022/09/01 12:38:47;;;;;;;17.35;10.63;;;;;;;25.27;64.42;97249.41;10329708;28;20495;-57
2022/09/01 12:43:46;;;;;;;21.77;13.48;;;;;;;23.96;72.55;97269.44;10329019;28;20082;-57
2022/09/01 12:48:45;;;;;;;19.15;12.23;;;;;;;23.02;76.42;97275.13;10329331;28;20125;-57
2022/09/01 12:53:56;;;;;;;16.02;10.35;;;;;;;22.72;78.61;97277.75;10329114;28;20401;-57
2022/09/01 12:59:19;;;;;;;15.82;9.98;;;;;;;22.67;79.38;97272.72;10329333;28;20061;-57
2022/09/01 13:04:24;;;;;;;14.00;9.93;;;;;;;22.67;79.46;97262.16;10329410;28;20068;-57
2022/09/01 13:09:23;;;;;;;12.35;9.38;;;;;;;23.01;78.02;97271.63;10329320;28;20064;-57
2022/09/01 13:14:24;;;;;;;13.68;9.52;;;;;;;23.37;75.63;97261.56;10329120;28;20069;-57
2022/09/01 13:19:23;;;;;;;12.93;9.73;;;;;;;23.39;73.19;97264.97;10329015;28;20624;-58
2022/09/01 13:24:22;;;;;;;14.07;9.80;;;;;;;23.57;72.83;97274.50;10329609;28;20301;-58
2022/09/01 13:29:21;;;;;;;15.02;10.52;;;;;;;23.67;72.60;97258.03;10329389;28;20124;-58
2022/09/01 13:34:20;;;;;;;12.50;9.30;;;;;;;23.89;71.90;97269.00;10328602;28;20471;-59
2022/09/01 13:39:19;;;;;;;10.45;7.82;;;;;;;24.06;68.42;97263.47;10328315;28;20490;-58
2022/09/01 13:44:18;;;;;;;10.85;8.32;;;;;;;24.19;68.72;97270.66;10327650;28;20073;-57
2022/09/01 13:49:18;;;;;;;12.80;8.75;;;;;;;24.27;66.26;97258.63;10327436;28;20045;-58
2022/09/01 13:54:17;;;;;;;9.68;8.68;;;;;;;24.56;67.26;97258.53;10328371;28;20068;-57
2022/09/01 13:59:16;;;;;;;11.65;9.43;;;;;;;24.89;66.35;97259.94;10327736;28;20026;-56
2022/09/01 14:04:15;;;;;;;13.65;8.70;;;;;;;25.14;64.54;97264.44;10328021;28;20507;-56
2022/09/01 14:09:15;;;;;;;11.55;8.82;;;;;;;25.27;63.65;97249.41;10326655;28;20461;-58
2022/09/01 14:14:14;;;;;;;10.25;8.25;;;;;;;25.11;59.36;97254.06;10330378;28;20057;-57
2022/09/01 14:19:13;;;;;;;12.57;9.23;;;;;;;25.20;60.97;97258.75;10334407;28;20261;-57
2022/09/01 14:24:12;;;;;;;14.40;8.40;;;;;;;25.37;61.67;97260.22;10332193;28;20021;-57
2022/09/01 14:29:11;;;;;;;13.82;9.65;;;;;;;25.63;60.13;97250.47;10330852;28;20057;-57
2022/09/01 14:34:11;;;;;;;14.43;9.07;;;;;;;25.69;57.88;97254.50;10333511;28;20056;-57
2022/09/01 14:39:09;;;;;;;10.63;8.60;;;;;;;25.80;56.95;97253.75;10332650;28;20075;-58
2022/09/01 14:44:08;;;;;;;14.82;10.48;;;;;;;26.04;57.31;97262.66;10332469;28;20037;-57
2022/09/01 14:49:08;;;;;;;13.45;9.10;;;;;;;26.09;57.66;97257.84;10332500;28;20506;-57
2022/09/01 14:54:08;;;;;;;14.68;10.73;;;;;;;26.07;59.58;97257.09;10334051;28;20068;-58
2022/09/01 14:59:07;;;;;;;11.85;8.95;;;;;;;25.82;60.91;97263.31;10328109;28;20848;-57
2022/09/01 15:04:06;;;;;;;14.32;9.38;;;;;;;25.68;60.41;97269.59;10332950;28;20491;-58
2022/09/01 15:09:05;;;;;;;13.93;9.23;;;;;;;25.63;61.35;97253.13;10332289;28;20124;-58
2022/09/01 15:14:04;;;;;;;14.82;9.10;;;;;;;25.78;61.30;97258.31;10331795;28;20057;-57
2022/09/01 15:19:03;;;;;;;12.98;8.60;;;;;;;25.63;62.10;97268.22;10331773;28;20030;-57
2022/09/01 15:24:04;;;;;;;12.65;8.65;;;;;;;25.46;60.88;97264.06;10323712;28;20511;-58
2022/09/01 15:29:04;;;;;;;13.23;8.75;;;;;;;25.31;60.09;97253.50;10308073;28;20117;-57
2022/09/01 15:34:03;;;;;;;12.85;9.18;;;;;;;25.17;61.65;97253.63;10328389;28;20071;-57
2022/09/01 15:39:02;;;;;;;15.57;8.98;;;;;;;24.93;61.98;97253.47;10300590;28;20108;-57
2022/09/01 15:44:06;;;;;;;17.60;10.43;;;;;;;24.77;63.16;97256.28;10318831;28;20069;-57
2022/09/01 15:49:08;;;;;;;12.70;9.07;;;;;;;24.54;63.91;97247.16;10330637;28;20072;-57
2022/09/01 15:54:10;;;;;;;17.90;11.02;;;;;;;24.45;65.04;97248.66;10321942;28;20068;-57
2022/09/01 15:59:09;;;;;;;12.65;9.60;;;;;;;24.36;65.75;97251.91;10322603;28;20319;-57
2022/09/01 16:04:11;;;;;;;14.02;10.35;;;;;;;24.24;66.89;97258.00;10329539;28;20053;-58
2022/09/01 16:09:11;;;;;;;14.50;10.93;;;;;;;24.06;68.42;97260.81;10325532;28;20084;-57
2022/09/01 16:14:10;;;;;;;15.05;11.45;;;;;;;23.90;69.57;97257.44;10311464;28;20057;-59
2022/09/01 16:19:28;;;;;;;15.10;11.70;;;;;;;23.75;70.41;97255.78;10330291;28;20073;-58
2022/09/01 16:24:27;;;;;;;15.50;11.02;;;;;;;23.56;71.59;97261.31;10326917;28;20563;-57
2022/09/01 16:29:49;;;;;;;16.98;10.98;;;;;;;23.38;72.60;97279.19;10325418;28;20075;-57
2022/09/01 16:34:51;;;;;;;15.18;10.45;;;;;;;23.25;73.15;97283.50;10322613;28;20120;-57
2022/09/01 16:40:01;;;;;;;15.27;10.77;;;;;;;23.12;73.26;97288.69;10325853;28;20519;-57
2022/09/01 16:45:16;;;;;;;16.30;11.88;;;;;;;22.96;74.08;97288.72;10315513;28;20077;-57
2022/09/01 16:50:39;;;;;;;11.77;10.43;;;;;;;22.79;75.22;97285.28;10292360;28;20092;-57
2022/09/01 16:56:07;;;;;;;15.68;11.48;;;;;;;22.64;76.81;97291.38;10320637;28;20127;-57
2022/09/01 17:01:11;;;;;;;16.77;11.60;;;;;;;22.46;78.10;97298.59;10311840;28;20120;-58
2022/09/01 17:06:26;;;;;;;20.02;11.70;;;;;;;22.31;78.46;97305.56;10329331;28;20060;-57
2022/09/01 17:11:38;;;;;;;18.58;12.07;;;;;;;22.15;79.29;97302.91;10326033;28;20618;-57
2022/09/01 17:16:43;;;;;;;17.20;13.65;;;;;;;22.06;79.70;97298.16;10325295;28;20057;-58
2022/09/01 17:21:51;;;;;;;17.65;12.70;;;;;;;22.01;80.58;97307.25;10325217;28;20073;-57
2022/09/01 17:26:52;;;;;;;20.35;12.88;;;;;;;21.85;81.24;97294.88;10324671;28;20076;-56
2022/09/01 17:32:01;;;;;;;20.38;12.95;;;;;;;21.86;81.57;97309.78;10326681;28;20099;-57
2022/09/01 17:37:10;;;;;;;15.80;13.23;;;;;;;21.82;82.25;97304.72;10328292;28;20091;-57
2022/09/01 17:42:29;;;;;;;;;;;;;;;21.76;82.87;97311.22;10327913;28;20064;-57
2022/09/01 17:47:40;;;;;;;20.92;13.80;;;;;;;21.63;83.71;97310.13;10290459;28;19964;-58
2022/09/01 17:52:42;;;;;;;17.05;13.50;;;;;;;21.65;84.05;97324.97;10295272;28;20511;-56
2022/09/01 17:58:32;;;;;;;18.95;13.30;;;;;;;21.62;83.86;97311.94;10294451;28;20061;-57
2022/09/01 18:03:51;;;;;;;20.98;15.25;;;;;;;21.59;84.88;97313.88;10288158;28;20064;-57
2022/09/01 18:08:52;;;;;;;;;;;;;;;21.51;84.76;97307.19;10328398;28;20095;-58
2022/09/01 18:14:01;;;;;;;19.48;14.05;;;;;;;21.48;84.94;97317.94;10330860;28;20006;-57
2022/09/01 18:19:07;;;;;;;18.38;15.13;;;;;;;21.43;84.98;97321.72;10333848;28;20069;-58
2022/09/01 18:24:18;;;;;;;23.08;15.98;;;;;;;21.35;85.33;97327.41;10335213;28;20068;-57
2022/09/01 18:29:18;;;;;;;20.13;13.93;;;;;;;21.29;85.93;97333.03;10309509;28;20076;-57
2022/09/01 18:34:55;;;;;;;19.45;14.18;;;;;;;21.22;86.24;97327.19;10292364;28;20096;-57
2022/09/01 18:40:24;;;;;;;16.25;13.40;;;;;;;21.17;86.59;97349.41;10294426;28;20093;-57
2022/09/01 18:45:26;;;;;;;;;;;;;;;21.12;87.00;97347.88;10330559;28;20514;-57
2022/09/01 18:50:38;;;;;;;19.90;14.00;;;;;;;21.02;87.43;97337.84;10333873;28;20409;-59
2022/09/01 18:55:47;;;;;;;17.42;13.77;;;;;;;20.99;87.88;97345.94;10332812;28;20057;-58
2022/09/01 19:00:49;;;;;;;;;;;;;;;20.98;88.44;97339.78;10332490;28;20064;-58
2022/09/01 19:06:20;;;;;;;21.75;14.38;;;;;;;20.90;88.77;97348.09;10334374;28;19959;-57
2022/09/01 19:11:22;;;;;;;18.75;15.38;;;;;;;20.91;89.18;97362.13;10321309;28;20069;-58
2022/09/01 19:16:32;;;;;;;18.85;14.05;;;;;;;20.93;89.07;97368.19;10329761;28;20052;-58
2022/09/01 19:21:31;;;;;;;19.20;14.55;;;;;;;20.93;89.27;97369.03;10332430;28;20069;-58
2022/09/01 19:26:42;;;;;;;23.35;16.75;;;;;;;20.86;90.27;97369.41;10331976;28;20057;-57
2022/09/01 19:31:58;;;;;;;22.02;16.05;;;;;;;20.66;92.37;97363.31;10331700;28;20072;-58
2022/09/01 19:37:00;;;;;;;22.67;16.00;;;;;;;20.65;92.27;97368.66;10332208;28;20418;-57
2022/09/01 19:42:14;;;;;;;24.08;16.20;;;;;;;20.60;92.75;97360.97;10330952;28;20503;-58
2022/09/01 19:47:20;;;;;;;21.48;16.52;;;;;;;20.62;92.34;97361.75;10328108;28;20081;-58
2022/09/01 19:52:32;;;;;;;20.27;15.77;;;;;;;20.57;92.25;97366.38;10331362;28;20057;-58
2022/09/01 19:58:03;;;;;;;20.70;15.38;;;;;;;20.49;92.33;97376.44;10323791;28;20083;-58
2022/09/01 20:03:08;;;;;;;23.70;15.05;;;;;;;20.42;92.16;97383.78;10309308;28;20124;-58
2022/09/01 20:08:24;;;;;;;19.90;15.77;;;;;;;20.38;92.25;97389.25;10328477;28;20482;-58
2022/09/01 20:13:28;;;;;;;25.52;15.75;;;;;;;20.34;92.37;97377.97;10324968;28;20080;-58
2022/09/01 20:18:30;;;;;;;25.10;17.20;;;;;;;20.30;92.29;97379.03;10327900;28;20057;-57
2022/09/01 20:23:54;;;;;;;23.83;15.23;;;;;;;20.26;92.32;97382.75;10329611;28;20057;-56
2022/09/01 20:28:53;;;;;;;20.63;14.52;;;;;;;20.22;92.38;97382.03;10329982;28;20092;-57
2022/09/01 20:34:24;;;;;;;22.08;16.08;;;;;;;20.20;92.26;97386.50;10315572;28;20454;-57
2022/09/01 20:45:08;;;;;;;25.08;17.33;;;;;;;20.00;93.78;97397.09;10328369;28;20080;-57
2022/09/01 20:50:12;;;;;;;20.95;15.43;;;;;;;19.83;94.57;97401.31;10327205;28;20068;-57
2022/09/01 20:55:17;;;;;;;20.52;15.40;;;;;;;19.68;95.17;97407.28;10328825;28;20069;-57
2022/09/01 21:00:27;;;;;;;22.27;15.77;;;;;;;19.59;95.75;97405.03;10329581;28;20060;-57
2022/09/01 21:05:39;;;;;;;21.27;15.73;;;;;;;19.54;96.22;97404.34;10328272;28;20491;-57
2022/09/01 21:10:57;;;;;;;17.23;14.32;;;;;;;19.52;96.65;97416.72;10328751;28;20052;-57
2022/09/01 21:16:04;;;;;;;20.63;15.60;;;;;;;19.48;97.03;97417.75;10328624;28;20061;-57
2022/09/01 21:21:26;;;;;;;21.13;14.95;;;;;;;19.55;96.98;97421.84;10326662;28;20064;-57
2022/09/01 21:26:25;;;;;;;21.98;15.20;;;;;;;19.68;96.62;97423.06;10326179;28;20451;-57
2022/09/01 21:31:24;;;;;;;18.35;15.48;;;;;;;19.79;96.44;97425.22;10337138;28;20049;-57
2022/09/01 21:36:23;;;;;;;21.25;15.15;;;;;;;19.87;96.31;97428.38;10336646;28;20061;-57
2022/09/01 21:41:22;;;;;;;23.23;16.27;;;;;;;19.92;96.04;97430.81;10335046;28;20028;-57
2022/09/01 21:46:21;;;;;;;23.70;16.45;;;;;;;19.89;96.13;97416.03;10336347;28;20434;-57
2022/09/01 21:51:20;;;;;;;26.85;18.30;;;;;;;19.89;96.39;97408.13;10331944;28;20033;-57
2022/09/01 21:56:19;;;;;;;26.17;18.75;;;;;;;19.87;96.56;97413.44;10334040;28;20517;-57
2022/09/01 22:01:18;;;;;;;21.83;18.08;;;;;;;19.87;96.53;97410.81;10335083;28;20071;-57
2022/09/01 22:06:17;;;;;;;27.08;17.65;;;;;;;19.86;96.59;97403.84;10333663;28;20036;-59
2022/09/01 22:11:16;;;;;;;24.42;16.70;;;;;;;19.86;96.46;97400.34;10333088;28;20022;-57
2022/09/01 22:16:17;;;;;;;21.73;15.73;;;;;;;19.72;96.71;97398.34;10335005;28;20487;-57
2022/09/01 22:21:17;;;;;;;20.20;14.90;;;;;;;19.71;96.56;97393.97;10325567;28;20113;-57
2022/09/01 22:26:21;;;;;;;16.85;15.05;;;;;;;19.74;96.43;97390.34;10327175;28;20614;-56
2022/09/01 22:31:22;;;;;;;17.25;14.43;;;;;;;19.78;96.05;97400.66;10329427;28;20600;-57
2022/09/01 22:36:31;;;;;;;19.75;14.88;;;;;;;19.75;95.69;97378.91;10331103;28;20108;-57
2022/09/01 22:41:31;;;;;;;19.73;14.43;;;;;;;19.88;95.72;97387.94;10333113;28;20558;-57
2022/09/01 22:46:31;;;;;;;22.10;15.63;;;;;;;19.79;96.24;97383.09;10333780;28;20073;-57
2022/09/01 22:51:31;;;;;;;21.35;15.57;;;;;;;19.80;96.24;97400.63;10331083;28;20478;-57
2022/09/01 22:56:32;;;;;;;21.15;15.80;;;;;;;19.80;96.29;97404.09;10333454;28;20496;-57
2022/09/01 23:01:35;;;;;;;21.25;15.75;;;;;;;19.74;96.64;97395.59;10334037;28;20463;-57
2022/09/01 23:06:39;;;;;;;20.38;16.15;;;;;;;19.74;96.70;97396.47;10332961;28;20072;-56
2022/09/01 23:11:38;;;;;;;19.88;15.90;;;;;;;19.79;96.69;97397.13;10332625;28;20061;-57
2022/09/01 23:16:37;;;;;;;22.08;17.00;;;;;;;19.86;96.49;97393.31;10332943;28;20072;-57